createdAt,value
2022-10-13T00:00:22.536Z,7.29
2022-10-13T00:03:12.696Z,7.32
2022-10-13T00:05:44.427Z,7.36
2022-10-13T00:08:19.227Z,7.33
2022-10-13T00:10:50.738Z,7.33
2022-10-13T00:13:25.614Z,7.41
2022-10-13T00:15:55.735Z,7.46
2022-10-13T00:18:25.765Z,7.46
2022-10-13T00:20:58.375Z,7.47
2022-10-13T00:23:29.806Z,7.51
2022-10-13T00:25:59.984Z,7.53
2022-10-13T00:28:29.924Z,7.54
2022-10-13T00:31:00.245Z,7.56
2022-10-13T00:33:30.557Z,7.59
2022-10-13T00:36:00.735Z,7.61
2022-10-13T00:38:32.415Z,7.63
2022-10-13T00:41:02.646Z,7.66
2022-10-13T00:43:52.253Z,7.70
2022-10-13T00:46:22.364Z,7.68
2022-10-13T00:49:02.537Z,7.66
2022-10-13T00:51:36.826Z,7.68
2022-10-13T00:54:11.486Z,7.70
2022-10-13T00:56:43.128Z,7.70
2022-10-13T00:59:22.997Z,7.73
2022-10-13T01:01:53.835Z,7.72
2022-10-13T01:04:28.404Z,7.64
2022-10-13T01:06:59.605Z,7.65
2022-10-13T01:09:37.680Z,7.67
2022-10-13T01:12:19.116Z,7.66
2022-10-13T01:14:56.008Z,7.70
2022-10-13T01:17:35.375Z,7.70
2022-10-13T01:20:33.155Z,7.75
2022-10-13T01:23:19.206Z,7.77
2022-10-13T01:26:25.207Z,7.76
2022-10-13T01:29:35.535Z,7.77
2022-10-13T01:32:14.136Z,7.71
2022-10-13T01:34:51.724Z,7.74
2022-10-13T01:37:36.569Z,7.74
2022-10-13T01:40:14.584Z,7.75
2022-10-13T01:42:51.906Z,7.79
2022-10-13T01:45:27.505Z,7.80
2022-10-13T01:48:01.215Z,7.80
2022-10-13T01:50:31.716Z,7.79
2022-10-13T01:53:05.594Z,7.79
2022-10-13T01:55:35.745Z,7.79
2022-10-13T01:58:06.035Z,7.79
2022-10-13T02:00:45.055Z,7.79
2022-10-13T02:03:25.045Z,7.76
2022-10-13T02:06:05.165Z,7.77
2022-10-13T02:08:46.776Z,7.70
2022-10-13T02:11:19.327Z,7.74
2022-10-13T02:13:55.766Z,7.77
2022-10-13T02:16:26.375Z,7.74
2022-10-13T02:18:59.714Z,7.74
2022-10-13T02:21:29.877Z,7.76
2022-10-13T02:24:03.864Z,7.77
2022-10-13T02:26:34.584Z,7.75
2022-10-13T02:29:14.414Z,7.78
2022-10-13T02:31:46.149Z,7.77
2022-10-13T02:34:17.964Z,7.76
2022-10-13T02:36:49.616Z,7.43
2022-10-13T02:39:19.894Z,7.74
2022-10-13T02:41:50.997Z,7.71
2022-10-13T02:44:21.327Z,7.71
2022-10-13T02:46:51.326Z,7.72
2022-10-13T02:49:22.636Z,7.67
2022-10-13T02:51:52.526Z,7.66
2022-10-13T02:54:22.454Z,7.64
2022-10-13T02:56:52.491Z,7.66
2022-10-13T02:59:22.554Z,7.67
2022-10-13T03:01:52.425Z,7.68
2022-10-13T03:04:23.897Z,7.64
2022-10-13T03:06:54.855Z,7.59
2022-10-13T03:09:24.805Z,7.58
2022-10-13T03:11:54.725Z,7.60
2022-10-13T03:14:25.077Z,7.64
2022-10-13T03:16:55.055Z,7.65
2022-10-13T03:19:26.786Z,7.65
2022-10-13T03:21:56.975Z,7.63
2022-10-13T03:24:26.955Z,7.67
2022-10-13T03:26:56.914Z,7.64
2022-10-13T03:29:27.165Z,7.62
2022-10-13T03:31:57.095Z,7.61
2022-10-13T03:34:28.765Z,7.63
2022-10-13T03:36:59.336Z,7.65
2022-10-13T03:39:29.835Z,7.69
2022-10-13T03:41:59.794Z,7.68
2022-10-13T03:44:30.374Z,7.68
2022-10-13T03:47:00.474Z,7.71
2022-10-13T03:49:31.975Z,7.66
2022-10-13T03:52:02.383Z,7.67
2022-10-13T03:54:32.336Z,7.67
2022-10-13T03:57:02.356Z,7.67
2022-10-13T03:59:36.593Z,7.64
2022-10-13T04:02:07.104Z,7.66
2022-10-13T04:04:39.985Z,7.67
2022-10-13T04:07:10.227Z,7.68
2022-10-13T04:09:40.594Z,7.65
2022-10-13T04:12:10.812Z,7.66
2022-10-13T04:14:41.215Z,7.69
2022-10-13T04:17:11.165Z,7.70
2022-10-13T04:19:42.568Z,7.46
2022-10-13T04:22:12.825Z,7.73
2022-10-13T04:24:44.086Z,7.69
2022-10-13T04:27:16.915Z,7.68
2022-10-13T04:29:46.885Z,7.67
2022-10-13T04:32:18.288Z,7.69
2022-10-13T04:34:50.046Z,7.71
2022-10-13T04:37:19.885Z,7.69
2022-10-13T04:39:49.775Z,7.64
2022-10-13T04:42:20.227Z,7.67
2022-10-13T04:44:50.427Z,7.67
2022-10-13T04:47:24.488Z,7.65
2022-10-13T04:49:55.907Z,7.64
2022-10-13T04:52:26.450Z,7.61
2022-10-13T04:54:58.973Z,7.60
2022-10-13T04:57:29.353Z,7.58
2022-10-13T04:59:59.303Z,7.55
2022-10-13T05:02:34.262Z,7.49
2022-10-13T05:05:09.206Z,7.53
2022-10-13T05:07:39.585Z,7.47
2022-10-13T05:10:09.904Z,7.40
2022-10-13T05:12:40.458Z,7.35
2022-10-13T05:15:11.436Z,7.28
2022-10-13T05:17:41.753Z,7.28
2022-10-13T05:20:14.121Z,7.24
2022-10-13T05:22:44.333Z,7.18
2022-10-13T05:25:14.283Z,7.03
2022-10-13T05:27:45.545Z,7.00
2022-10-13T05:30:15.505Z,6.96
2022-10-13T05:32:46.818Z,6.89
2022-10-13T05:35:19.856Z,6.88
2022-10-13T05:37:49.795Z,6.85
2022-10-13T05:40:21.653Z,6.75
2022-10-13T05:42:56.395Z,6.73
2022-10-13T05:45:29.253Z,6.72
2022-10-13T05:47:59.385Z,6.70
2022-10-13T05:50:31.242Z,6.76
2022-10-13T05:53:01.282Z,6.82
2022-10-13T05:55:31.622Z,6.74
2022-10-13T05:58:03.173Z,6.67
2022-10-13T06:00:33.593Z,6.68
2022-10-13T06:03:09.250Z,6.69
2022-10-13T06:05:43.474Z,6.64
2022-10-13T06:08:13.556Z,6.57
2022-10-13T06:10:45.119Z,6.50
2022-10-13T06:13:15.705Z,6.46
2022-10-13T06:15:45.899Z,6.44
2022-10-13T06:18:16.339Z,6.46
2022-10-13T06:20:48.075Z,6.54
2022-10-13T06:23:18.813Z,6.56
2022-10-13T06:25:52.922Z,6.59
2022-10-13T06:28:23.769Z,6.63
2022-10-13T06:30:57.119Z,6.73
2022-10-13T06:33:27.876Z,6.83
2022-10-13T06:36:02.795Z,6.92
2022-10-13T06:38:33.183Z,7.00
2022-10-13T06:41:03.665Z,7.16
2022-10-13T06:43:40.218Z,7.24
2022-10-13T06:46:14.350Z,7.35
2022-10-13T06:48:44.982Z,7.46
2022-10-13T06:51:16.604Z,7.56
2022-10-13T06:53:47.249Z,7.72
2022-10-13T06:56:17.663Z,7.85
2022-10-13T06:58:48.604Z,7.95
2022-10-13T07:01:19.462Z,8.13
2022-10-13T07:03:51.372Z,8.26
2022-10-13T07:06:25.623Z,8.52
2022-10-13T07:08:57.044Z,9.75
2022-10-13T07:11:27.544Z,10.37
2022-10-13T07:13:59.573Z,11.04
2022-10-13T07:16:29.908Z,11.70
2022-10-13T07:19:00.169Z,11.78
2022-10-13T07:21:32.083Z,12.27
2022-10-13T07:24:03.102Z,12.52
2022-10-13T07:26:34.286Z,12.48
2022-10-13T07:29:05.003Z,12.80
2022-10-13T07:31:35.424Z,13.19
2022-10-13T07:34:06.974Z,13.31
2022-10-13T07:36:41.978Z,13.47
2022-10-13T07:39:12.204Z,13.81
2022-10-13T07:41:43.428Z,14.07
2022-10-13T07:44:15.694Z,14.12
2022-10-13T07:46:46.465Z,14.15
2022-10-13T07:49:16.671Z,14.25
2022-10-13T07:51:48.502Z,14.75
2022-10-13T07:54:25.088Z,14.84
2022-10-13T07:56:57.823Z,14.41
2022-10-13T07:59:28.170Z,14.93
2022-10-13T08:02:00.742Z,15.01
2022-10-13T08:04:32.454Z,14.90
2022-10-13T08:07:06.024Z,15.81
2022-10-13T08:09:37.053Z,15.04
2022-10-13T08:12:07.602Z,15.20
2022-10-13T08:14:37.810Z,15.23
2022-10-13T08:17:08.333Z,15.29
2022-10-13T08:19:38.313Z,14.97
2022-10-13T08:22:10.754Z,15.04
2022-10-13T08:24:42.985Z,15.02
2022-10-13T08:27:17.078Z,15.09
2022-10-13T08:29:47.795Z,15.36
2022-10-13T08:32:21.507Z,15.49
2022-10-13T08:34:51.982Z,15.52
2022-10-13T08:37:23.763Z,15.81
2022-10-13T08:39:56.585Z,16.19
2022-10-13T08:42:27.105Z,16.42
2022-10-13T08:45:28.379Z,16.58
2022-10-13T08:47:56.265Z,16.39
2022-10-13T08:50:30.245Z,16.37
2022-10-13T08:53:04.960Z,16.09
2022-10-13T08:55:42.556Z,16.07
2022-10-13T08:58:19.980Z,15.96
2022-10-13T09:00:53.215Z,15.20
2022-10-13T09:03:28.723Z,14.57
2022-10-13T09:06:12.381Z,14.70
2022-10-13T09:08:50.525Z,14.12
2022-10-13T09:11:21.262Z,13.89
2022-10-13T09:13:55.743Z,13.89
2022-10-13T09:16:35.864Z,14.03
2022-10-13T09:19:25.003Z,14.49
2022-10-13T09:21:57.815Z,14.65
2022-10-13T09:24:30.115Z,14.06
2022-10-13T09:27:13.265Z,13.83
2022-10-13T09:29:45.039Z,13.91
2022-10-13T09:32:21.024Z,14.12
2022-10-13T09:34:52.322Z,13.99
2022-10-13T09:37:24.329Z,14.20
2022-10-13T09:53:37.203Z,14.46
2022-10-13T09:56:19.033Z,14.42
2022-10-13T09:59:04.588Z,14.32
2022-10-13T10:01:40.519Z,14.18
2022-10-13T10:04:16.098Z,14.12
2022-10-13T10:06:48.550Z,14.03
2022-10-13T10:09:42.618Z,14.12
2022-10-13T10:12:22.879Z,14.16
2022-10-13T10:14:56.020Z,14.19
2022-10-13T10:17:35.116Z,14.11
2022-10-13T10:20:24.520Z,14.12
2022-10-13T10:22:59.709Z,14.18
2022-10-13T10:25:42.061Z,14.27
2022-10-13T10:28:42.091Z,14.22
2022-10-13T10:31:27.290Z,14.39
2022-10-13T10:34:13.600Z,14.36
2022-10-13T10:36:55.129Z,14.48
2022-10-13T10:39:32.906Z,14.36
2022-10-13T10:42:10.866Z,14.35
2022-10-13T10:49:43.926Z,14.29
2022-10-13T10:52:28.028Z,14.27
2022-10-13T10:55:13.439Z,14.42
2022-10-13T10:58:01.347Z,14.38
2022-10-13T11:00:46.876Z,14.36
2022-10-13T11:03:43.086Z,14.49
2022-10-13T11:06:46.861Z,14.51
2022-10-13T11:09:58.584Z,14.50
2022-10-13T11:13:15.740Z,14.62
2022-10-13T11:15:50.442Z,14.58
2022-10-13T11:19:14.857Z,14.67
2022-10-13T11:25:39.875Z,14.57
2022-10-13T11:28:44.164Z,14.48
2022-10-13T11:31:49.347Z,14.41
2022-10-13T11:34:39.123Z,14.47
2022-10-13T11:37:28.877Z,14.50
2022-10-13T11:40:21.770Z,14.56
2022-10-13T11:43:34.447Z,14.63
2022-10-13T11:46:44.527Z,14.77
2022-10-13T11:49:51.626Z,14.69
2022-10-13T11:52:54.753Z,14.75
2022-10-13T11:55:45.008Z,14.86
2022-10-13T11:58:20.466Z,14.92
2022-10-13T12:01:12.072Z,14.98
2022-10-13T12:03:52.596Z,14.98
2022-10-13T12:06:53.608Z,14.90
2022-10-13T12:09:27.847Z,15.01
2022-10-13T12:12:22.106Z,14.88
2022-10-13T12:15:06.924Z,14.85
2022-10-13T12:22:50.702Z,14.81
2022-10-13T12:25:25.208Z,14.85
2022-10-13T12:28:43.197Z,14.98
2022-10-13T12:31:31.797Z,14.92
2022-10-13T12:34:28.487Z,14.92
2022-10-13T12:37:51.385Z,14.87
2022-10-13T12:40:34.852Z,14.91
2022-10-13T12:43:06.610Z,14.98
2022-10-13T12:45:37.519Z,15.09
2022-10-13T12:48:08.309Z,15.03
2022-10-13T12:50:40.187Z,14.90
2022-10-13T12:53:20.347Z,14.87
2022-10-13T12:55:59.333Z,14.96
2022-10-13T12:58:32.398Z,14.81
2022-10-13T13:01:22.717Z,14.69
2022-10-13T13:03:58.628Z,14.73
2022-10-13T13:06:37.568Z,14.71
2022-10-13T13:09:29.117Z,14.69
2022-10-13T13:12:27.989Z,14.54
2022-10-13T13:14:58.939Z,14.46
2022-10-13T13:17:53.326Z,14.43
2022-10-13T13:20:29.266Z,14.35
2022-10-13T13:23:00.578Z,14.40
2022-10-13T13:25:30.954Z,14.40
2022-10-13T13:28:05.217Z,14.39
2022-10-13T13:30:36.810Z,14.38
2022-10-13T13:33:07.715Z,14.30
2022-10-13T13:35:39.774Z,14.25
2022-10-13T13:38:12.616Z,14.23
2022-10-13T13:40:44.450Z,14.25
2022-10-13T13:43:17.459Z,14.17
2022-10-13T13:45:48.018Z,14.18
2022-10-13T13:48:18.468Z,14.18
2022-10-13T13:50:49.328Z,14.17
2022-10-13T13:53:20.683Z,14.11
2022-10-13T13:55:51.266Z,14.08
2022-10-13T13:58:23.730Z,14.07
2022-10-13T14:00:55.478Z,13.91
2022-10-13T14:03:26.438Z,14.01
2022-10-13T14:05:56.617Z,14.05
2022-10-13T14:08:27.412Z,14.00
2022-10-13T14:10:57.649Z,13.94
2022-10-13T14:13:29.288Z,13.92
2022-10-13T14:16:00.024Z,13.79
2022-10-13T14:18:32.327Z,13.73
2022-10-13T14:21:07.747Z,13.71
2022-10-13T14:23:38.788Z,13.63
2022-10-13T14:26:14.851Z,13.61
2022-10-13T14:28:48.503Z,13.52
2022-10-13T14:31:18.809Z,13.47
2022-10-13T14:33:54.111Z,13.35
2022-10-13T14:36:27.436Z,13.28
2022-10-13T14:38:58.867Z,13.14
2022-10-13T14:41:29.497Z,13.06
2022-10-13T14:44:01.200Z,12.96
2022-10-13T14:46:31.453Z,12.90
2022-10-13T14:49:01.677Z,12.81
2022-10-13T14:51:34.487Z,12.74
2022-10-13T14:54:07.367Z,12.69
2022-10-13T14:56:38.007Z,12.56
2022-10-13T14:59:12.199Z,12.48
2022-10-13T15:01:46.387Z,12.42
2022-10-13T15:04:16.964Z,12.35
2022-10-13T15:06:47.407Z,12.27
2022-10-13T15:09:18.992Z,12.27
2022-10-13T15:11:49.549Z,12.21
2022-10-13T15:14:22.222Z,12.08
2022-10-13T15:16:53.517Z,11.77
2022-10-13T15:19:24.381Z,11.95
2022-10-13T15:21:56.319Z,11.91
2022-10-13T15:24:28.251Z,11.88
2022-10-13T15:27:04.741Z,11.88
2022-10-13T15:29:38.498Z,11.89
2022-10-13T15:32:13.257Z,11.86
2022-10-13T15:34:45.324Z,11.82
2022-10-13T15:37:17.577Z,11.87
2022-10-13T15:39:47.599Z,11.87
2022-10-13T15:42:20.564Z,11.82
2022-10-13T15:47:43.004Z,11.72
2022-10-13T15:50:14.218Z,11.71
2022-10-13T15:52:46.630Z,11.66
2022-10-13T15:55:16.887Z,11.61
2022-10-13T15:57:51.591Z,11.54
2022-10-13T16:00:23.899Z,11.35
2022-10-13T16:02:54.649Z,11.10
2022-10-13T16:05:25.266Z,10.93
2022-10-13T16:07:56.420Z,10.78
2022-10-13T16:10:28.064Z,10.69
2022-10-13T16:13:01.388Z,10.52
2022-10-13T16:15:33.536Z,10.39
2022-10-13T16:18:13.905Z,10.29
2022-10-13T16:20:47.188Z,10.30
2022-10-13T16:23:17.708Z,10.23
2022-10-13T16:25:48.235Z,10.21
2022-10-13T16:28:18.596Z,10.08
2022-10-13T16:30:49.978Z,10.06
2022-10-13T16:33:20.251Z,9.97
2022-10-13T16:35:50.368Z,10.00
2022-10-13T16:38:20.605Z,9.92
2022-10-13T16:40:50.697Z,9.85
2022-10-13T16:43:20.938Z,9.80
2022-10-13T16:46:03.066Z,9.79
2022-10-13T16:48:36.777Z,9.78
2022-10-13T16:51:14.737Z,9.65
2022-10-13T16:53:48.629Z,9.58
2022-10-13T16:56:22.498Z,9.58
2022-10-13T16:58:55.380Z,9.51
2022-10-13T17:01:27.728Z,9.53
2022-10-13T17:03:58.434Z,9.37
2022-10-13T17:06:30.216Z,9.25
2022-10-13T17:09:03.560Z,9.17
2022-10-13T17:11:35.678Z,9.17
2022-10-13T17:14:08.523Z,9.15
2022-10-13T17:16:40.127Z,9.04
2022-10-13T17:19:10.740Z,8.93
2022-10-13T17:21:40.907Z,8.87
2022-10-13T17:24:12.520Z,8.85
2022-10-13T17:26:42.788Z,8.76
2022-10-13T17:29:13.138Z,8.82
2022-10-13T17:31:44.822Z,8.92
2022-10-13T17:34:18.812Z,9.01
2022-10-13T17:36:55.571Z,9.05
2022-10-13T17:39:32.567Z,8.91
2022-10-13T17:42:07.072Z,8.88
2022-10-13T17:44:43.808Z,8.95
2022-10-13T17:47:21.688Z,8.77
2022-10-13T17:49:59.123Z,8.93
2022-10-13T17:52:31.027Z,8.93
2022-10-13T17:55:05.267Z,8.89
2022-10-13T17:57:38.985Z,8.97
2022-10-13T18:00:14.325Z,9.01
2022-10-13T18:02:47.427Z,9.13
2022-10-13T18:05:21.951Z,9.33
2022-10-13T18:07:59.591Z,9.13
2022-10-13T18:11:03.652Z,8.97
2022-10-13T18:13:32.129Z,8.92
2022-10-13T18:16:11.148Z,8.78
2022-10-13T18:18:44.071Z,8.79
2022-10-13T18:21:16.637Z,8.59
2022-10-13T18:23:50.013Z,8.44
2022-10-13T18:26:22.257Z,8.21
2022-10-13T18:28:53.226Z,8.03
2022-10-13T18:31:23.969Z,7.99
2022-10-13T18:33:57.480Z,7.86
2022-10-13T18:36:31.878Z,7.78
2022-10-13T18:39:05.268Z,7.76
2022-10-13T18:41:37.147Z,7.54
2022-10-13T18:44:10.326Z,7.54
2022-10-13T18:46:44.266Z,7.55
2022-10-13T18:49:19.478Z,7.46
2022-10-13T18:51:52.687Z,7.34
2022-10-13T18:54:22.978Z,7.23
2022-10-13T18:56:53.559Z,7.01
2022-10-13T18:59:27.007Z,6.88
2022-10-13T19:01:57.569Z,7.01
2022-10-13T19:04:31.929Z,6.90
2022-10-13T19:07:08.910Z,6.87
2022-10-13T19:09:39.719Z,6.74
2022-10-13T19:12:10.298Z,6.68
2022-10-13T19:14:40.495Z,6.59
2022-10-13T19:17:11.557Z,6.58
2022-10-13T19:19:43.457Z,6.50
2022-10-13T19:22:13.887Z,6.43
2022-10-13T19:24:44.019Z,6.49
2022-10-13T19:27:15.550Z,6.55
2022-10-13T19:29:46.624Z,6.55
2022-10-13T19:32:20.355Z,6.51
2022-10-13T19:34:53.364Z,6.37
2022-10-13T19:37:24.629Z,6.33
2022-10-13T19:39:58.247Z,6.27
2022-10-13T19:42:32.561Z,6.24
2022-10-13T19:45:02.789Z,6.08
2022-10-13T19:47:36.589Z,6.00
2022-10-13T19:50:10.284Z,5.95
2022-10-13T19:52:41.728Z,5.84
2022-10-13T19:55:13.201Z,5.85
2022-10-13T19:57:45.168Z,5.91
2022-10-13T20:00:17.419Z,5.80
2022-10-13T20:02:50.324Z,5.80
2022-10-13T20:05:25.492Z,5.69
2022-10-13T20:07:56.388Z,5.59
2022-10-13T20:10:26.757Z,5.48
2022-10-13T20:12:57.155Z,5.40
2022-10-13T20:15:27.535Z,5.52
2022-10-13T20:18:02.828Z,5.43
2022-10-13T20:20:38.160Z,5.41
2022-10-13T20:23:10.806Z,5.36
2022-10-13T20:25:43.307Z,5.32
2022-10-13T20:28:13.827Z,5.28
2022-10-13T20:30:43.938Z,5.33
2022-10-13T20:33:14.238Z,5.43
2022-10-13T20:35:46.084Z,5.34
2022-10-13T20:38:18.459Z,5.20
2022-10-13T20:40:49.372Z,5.19
2022-10-13T20:43:24.839Z,5.13
2022-10-13T20:46:02.968Z,5.12
2022-10-13T20:48:57.736Z,5.14
2022-10-13T20:51:26.047Z,5.08
2022-10-13T20:53:56.809Z,5.12
2022-10-13T20:56:28.758Z,5.20
2022-10-13T20:59:03.816Z,5.19
2022-10-13T21:01:35.613Z,5.27
2022-10-13T21:04:07.894Z,5.43
2022-10-13T21:06:39.749Z,5.49
2022-10-13T21:09:10.505Z,5.46
2022-10-13T21:11:43.769Z,5.50
2022-10-13T21:14:18.677Z,5.56
2022-10-13T21:16:52.749Z,5.61
2022-10-13T21:19:23.881Z,5.67
2022-10-13T21:21:55.640Z,5.71
2022-10-13T21:24:26.026Z,5.87
2022-10-13T21:26:56.127Z,5.87
2022-10-13T21:29:26.788Z,5.78
2022-10-13T21:31:56.840Z,5.72
2022-10-13T21:34:27.227Z,5.71
2022-10-13T21:36:58.647Z,5.75
2022-10-13T21:39:28.479Z,5.72
2022-10-13T21:41:58.469Z,5.62
2022-10-13T21:44:31.186Z,5.56
2022-10-13T21:47:01.442Z,5.51
2022-10-13T21:49:32.387Z,5.52
2022-10-13T21:52:04.177Z,5.43
2022-10-13T21:54:34.350Z,5.43
2022-10-13T21:57:04.327Z,5.39
2022-10-13T21:59:34.749Z,5.31
2022-10-13T22:02:05.679Z,5.28
2022-10-13T22:04:35.829Z,5.30
2022-10-13T22:07:07.527Z,5.41
2022-10-13T22:09:37.467Z,5.46
2022-10-13T22:12:09.524Z,5.39
2022-10-13T22:14:39.907Z,5.23
2022-10-13T22:17:10.270Z,5.12
2022-10-13T22:19:40.469Z,5.06
2022-10-13T22:22:12.149Z,5.06
2022-10-13T22:24:42.367Z,5.13
2022-10-13T22:27:12.445Z,5.16
2022-10-13T22:29:42.577Z,5.27
2022-10-13T22:32:12.807Z,5.36
2022-10-13T22:34:43.148Z,5.25
2022-10-13T22:37:14.937Z,5.18
2022-10-13T22:39:45.145Z,5.18
2022-10-13T22:42:15.521Z,5.24
2022-10-13T22:44:45.526Z,5.20
2022-10-13T22:47:15.440Z,5.19
2022-10-13T22:49:45.799Z,5.10
2022-10-13T22:52:21.462Z,5.13
2022-10-13T22:54:51.758Z,5.24
2022-10-13T22:57:22.735Z,5.23
2022-10-13T22:59:54.016Z,5.22
2022-10-13T23:02:24.349Z,5.06
2022-10-13T23:04:54.648Z,5.22
2022-10-13T23:07:26.098Z,5.28
2022-10-13T23:09:56.388Z,5.22
2022-10-13T23:12:26.597Z,5.21
2022-10-13T23:14:56.941Z,5.29
2022-10-13T23:17:27.069Z,5.35
2022-10-13T23:19:58.389Z,5.44
2022-10-13T23:22:30.238Z,5.50
2022-10-13T23:25:00.410Z,5.49
2022-10-13T23:27:30.707Z,5.56
2022-10-13T23:30:01.083Z,5.63
2022-10-13T23:32:31.268Z,5.72
2022-10-13T23:35:01.411Z,5.72
2022-10-13T23:37:37.009Z,5.81
2022-10-13T23:40:08.329Z,5.84
2022-10-13T23:42:38.483Z,5.92
2022-10-13T23:45:09.418Z,5.95
2022-10-13T23:47:39.686Z,6.00
2022-10-13T23:50:10.270Z,6.01
2022-10-13T23:52:43.229Z,6.04
2022-10-13T23:55:15.446Z,6.02
2022-10-13T23:57:45.711Z,6.05
